»·PEaware :: JNY297 KLAX-KLAS

JNY297 :: KLAX-KLAS

FLIGHT INFORMATION

Flight Status: Arrived
Operator: Unknown
More flights by this operator :: More flights under this callsign
Pilot: Max W. (2591)
Aircraft: BOEING 757-200
(B752)
More flights by this aircraft type
Origin: KLAX Los Angeles Intl
United States
Destination: KLAS McCarran Intl
United States
More flights between these airports :: More routes between these airports
Route: +ORCKA3 MISEN KEPEC6
File this flight plan on PilotEdge
Remarks: STUDENT PILOT. FIRST TIME ON NETWORK
Altitude:
(Current/Filed)
27,000ft
Speed:
(Current/Filed)
500kts
Departed: 14-Sep-19 11:07 AM
Arrived: 14-Sep-19 11:51 AM
Distance/Time
Traveled:
204nm/0:44
Distance/Time
To Go:
Arrived

Flight Plot

Page will automatically refresh every two minutes.

Flight plan parsing failed; only flown route is shown


Map Options




Map Legend


Flown Route
Filed Route
Departure Airport
Arrival Airport
Navaid (VOR, NDB)
Fix

Horizontal Profiles

Position Reports

Time Latitude Longitude Heading Altitude Ground
Speed
14-Sep-19 10:16 33.934272 -118.394912 175 115ft 0kts
14-Sep-19 10:17 33.934272 -118.394912 175 115ft 0kts
14-Sep-19 10:18 33.934272 -118.394912 175 115ft 0kts
14-Sep-19 10:19 33.934272 -118.394912 175 115ft 0kts
14-Sep-19 10:20 33.934272 -118.394912 175 115ft 0kts
14-Sep-19 10:21 33.934272 -118.394912 175 115ft 0kts
14-Sep-19 10:22 33.934272 -118.394912 175 115ft 0kts
14-Sep-19 10:23 33.934272 -118.394912 175 115ft 0kts
14-Sep-19 10:24 33.934272 -118.394912 175 115ft 0kts
14-Sep-19 10:25 33.934272 -118.394912 175 115ft 0kts
14-Sep-19 10:25 33.934272 -118.394912 175 115ft 0kts
14-Sep-19 10:27 33.934272 -118.394912 175 115ft 0kts
14-Sep-19 10:28 33.934272 -118.394912 175 115ft 0kts
14-Sep-19 10:28 33.934272 -118.394912 175 115ft 0kts
14-Sep-19 10:29 33.934272 -118.394912 175 115ft 0kts
14-Sep-19 10:31 33.934272 -118.394912 175 115ft 0kts
14-Sep-19 10:31 33.934272 -118.394912 175 115ft 0kts
14-Sep-19 10:32 33.934272 -118.394912 175 115ft 0kts
14-Sep-19 10:33 33.934272 -118.394912 175 115ft 0kts
14-Sep-19 10:34 33.934272 -118.394912 175 115ft 0kts
14-Sep-19 10:35 33.934272 -118.394912 175 115ft 0kts
14-Sep-19 10:36 33.934272 -118.394912 175 115ft 0kts
14-Sep-19 10:37 33.934272 -118.394912 175 115ft 0kts
14-Sep-19 10:38 33.934272 -118.394912 175 115ft 0kts
14-Sep-19 10:39 33.934272 -118.394912 175 115ft 0kts
14-Sep-19 10:40 33.934272 -118.394912 175 115ft 0kts
14-Sep-19 10:41 33.934272 -118.394912 175 115ft 0kts
14-Sep-19 10:42 33.934272 -118.394912 175 115ft 0kts
14-Sep-19 10:43 33.934272 -118.394912 175 115ft 0kts
14-Sep-19 10:44 33.934272 -118.394912 175 115ft 0kts
14-Sep-19 10:45 33.934272 -118.394912 175 115ft 0kts
14-Sep-19 10:46 33.934272 -118.394912 175 115ft 0kts
14-Sep-19 10:47 33.934272 -118.394912 175 115ft 0kts
14-Sep-19 10:48 33.934272 -118.394912 175 115ft 0kts
14-Sep-19 10:49 33.934272 -118.394912 175 115ft 0kts
14-Sep-19 10:50 33.934272 -118.394912 175 115ft 0kts
14-Sep-19 10:51 33.934272 -118.394912 175 115ft 0kts
14-Sep-19 10:52 33.934272 -118.394912 175 115ft 0kts
14-Sep-19 10:53 33.934272 -118.394912 175 115ft 0kts
14-Sep-19 10:54 33.934272 -118.394912 175 115ft 0kts
14-Sep-19 10:55 33.934272 -118.394912 175 115ft 0kts
14-Sep-19 10:56 33.934272 -118.394912 175 115ft 0kts
14-Sep-19 10:57 33.934272 -118.394912 175 115ft 0kts
14-Sep-19 10:58 33.934272 -118.394912 175 115ft 0kts
14-Sep-19 10:59 33.934319 -118.393317 79 115ft 5kts
14-Sep-19 11:00 33.935727 -118.386440 81 115ft 26kts
14-Sep-19 11:01 33.936282 -118.382854 24 115ft 0kts
14-Sep-19 11:02 33.936282 -118.382854 24 115ft 0kts
14-Sep-19 11:03 33.936282 -118.382854 24 115ft 0kts
14-Sep-19 11:04 33.936305 -118.382846 15 115ft 0kts
14-Sep-19 11:05 33.937250 -118.383913 261 115ft 4kts
14-Sep-19 11:06 33.932805 -118.424573 262 1334ft 192kts
14-Sep-19 11:07 33.917773 -118.493900 248 3315ft 243kts
14-Sep-19 11:08 33.877399 -118.559126 189 7698ft 268kts
14-Sep-19 11:09 33.830395 -118.500435 85 11186ft 324kts
14-Sep-19 11:10 33.900623 -118.421644 9 14256ft 400kts
14-Sep-19 11:11 33.984832 -118.344754 59 18424ft 385kts
14-Sep-19 11:12 34.045334 -118.234788 56 21291ft 402kts
14-Sep-19 11:13 34.108962 -118.122090 56 23012ft 415kts
14-Sep-19 11:14 34.174751 -118.005377 56 25220ft 428kts
14-Sep-19 11:15 34.242828 -117.884218 56 27042ft 445kts
14-Sep-19 11:16 34.313730 -117.757594 56 26959ft 476kts
14-Sep-19 11:17 34.389388 -117.626749 54 27022ft 471kts
14-Sep-19 11:18 34.465977 -117.498384 54 27055ft 471kts
14-Sep-19 11:19 34.542548 -117.369525 54 27055ft 471kts
14-Sep-19 11:20 34.617011 -117.243762 55 27055ft 470kts
14-Sep-19 11:21 34.693250 -117.114536 55 27055ft 471kts
14-Sep-19 11:22 34.769682 -116.984510 55 27016ft 474kts
14-Sep-19 11:23 34.846181 -116.853892 55 26992ft 476kts
14-Sep-19 11:24 34.922432 -116.723100 55 25793ft 469kts
14-Sep-19 11:25 34.995810 -116.593229 55 24297ft 462kts
14-Sep-19 11:26 35.068275 -116.464517 55 24099ft 462kts
14-Sep-19 11:27 35.145690 -116.350021 45 24093ft 437kts
14-Sep-19 11:28 35.225230 -116.250008 46 23067ft 421kts
14-Sep-19 11:29 35.306207 -116.148191 46 21108ft 411kts
14-Sep-19 11:30 35.384545 -116.049420 46 18945ft 398kts
14-Sep-19 11:31 35.457490 -115.957184 46 16641ft 375kts
14-Sep-19 11:32 35.529570 -115.865791 46 14335ft 369kts
14-Sep-19 11:33 35.596826 -115.780297 46 13035ft 319kts
14-Sep-19 11:34 35.657971 -115.702359 46 13050ft 316kts
14-Sep-19 11:35 35.719095 -115.624281 46 13055ft 316kts
14-Sep-19 11:36 35.793244 -115.573933 2 13061ft 317kts
14-Sep-19 11:37 35.881032 -115.568649 1 13049ft 316kts
14-Sep-19 11:38 35.964921 -115.554946 34 12836ft 299kts
14-Sep-19 11:39 36.001699 -115.468091 69 11667ft 286kts
14-Sep-19 11:40 36.029261 -115.377138 83 10908ft 282kts
14-Sep-19 11:41 36.024624 -115.286843 95 9800ft 274kts
14-Sep-19 11:42 36.017822 -115.191934 95 9051ft 275kts
14-Sep-19 11:43 36.011661 -115.100948 95 8147ft 251kts
14-Sep-19 11:44 36.006613 -115.018790 95 7812ft 233kts
14-Sep-19 11:45 36.026453 -114.956108 8 5917ft 212kts
14-Sep-19 11:46 36.072021 -114.988046 305 5008ft 180kts
14-Sep-19 11:47 36.074629 -115.045181 264 3873ft 136kts
14-Sep-19 11:48 36.073538 -115.091840 270 2935ft 144kts
14-Sep-19 11:49 36.073632 -115.139356 271 2129ft 120kts
14-Sep-19 11:50 36.074505 -115.161223 353 2123ft 15kts
14-Sep-19 11:51 36.074666 -115.161248 350 2123ft 0kts
14-Sep-19 11:52 36.074666 -115.161248 350 2123ft 0kts

Navigation Log

Ident Type
Flight plan parsing failed, navigation log unavailable